sensor_id;sensor_type;location;lat;lon;timestamp;temperature;humidity
19224;DHT22;9746;47.180;9.776;2022-08-01T06:26:50;21.00;99.90
19224;DHT22;9746;47.180;9.776;2022-08-01T06:29:18;21.10;99.90
19224;DHT22;9746;47.180;9.776;2022-08-01T06:31:46;21.20;99.90
19224;DHT22;9746;47.180;9.776;2022-08-01T06:34:14;21.30;99.90
19224;DHT22;9746;47.180;9.776;2022-08-01T06:36:41;21.50;99.90
19224;DHT22;9746;47.180;9.776;2022-08-01T06:39:08;21.70;99.90
19224;DHT22;9746;47.180;9.776;2022-08-01T06:41:36;21.80;99.90
19224;DHT22;9746;47.180;9.776;2022-08-01T06:44:05;22.00;99.90
19224;DHT22;9746;47.180;9.776;2022-08-01T06:46:32;22.10;99.90
19224;DHT22;9746;47.180;9.776;2022-08-01T06:49:00;22.20;99.90
19224;DHT22;9746;47.180;9.776;2022-08-01T06:51:27;22.30;99.90
19224;DHT22;9746;47.180;9.776;2022-08-01T06:53:55;22.40;99.90
19224;DHT22;9746;47.180;9.776;2022-08-01T06:56:22;22.60;99.90
19224;DHT22;9746;47.180;9.776;2022-08-01T06:58:50;22.70;99.90
19224;DHT22;9746;47.180;9.776;2022-08-01T07:01:19;22.90;99.90
19224;DHT22;9746;47.180;9.776;2022-08-01T07:03:46;23.10;99.90
19224;DHT22;9746;47.180;9.776;2022-08-01T07:06:14;23.30;99.90
19224;DHT22;9746;47.180;9.776;2022-08-01T07:08:41;23.40;99.90
19224;DHT22;9746;47.180;9.776;2022-08-01T07:11:09;23.60;99.90
19224;DHT22;9746;47.180;9.776;2022-08-01T07:13:37;23.70;99.90
19224;DHT22;9746;47.180;9.776;2022-08-01T07:16:04;23.90;99.90
19224;DHT22;9746;47.180;9.776;2022-08-01T07:18:34;24.00;99.90
19224;DHT22;9746;47.180;9.776;2022-08-01T07:21:01;24.20;99.90
19224;DHT22;9746;47.180;9.776;2022-08-01T07:23:28;24.30;99.90
19224;DHT22;9746;47.180;9.776;2022-08-01T07:25:56;24.40;99.90
19224;DHT22;9746;47.180;9.776;2022-08-01T07:28:23;24.50;99.90
19224;DHT22;9746;47.180;9.776;2022-08-01T07:30:51;24.60;99.90
19224;DHT22;9746;47.180;9.776;2022-08-01T07:33:18;24.70;99.90
19224;DHT22;9746;47.180;9.776;2022-08-01T07:35:47;24.80;99.90
19224;DHT22;9746;47.180;9.776;2022-08-01T07:38:15;24.80;99.90
19224;DHT22;9746;47.180;9.776;2022-08-01T07:40:42;24.90;99.90
19224;DHT22;9746;47.180;9.776;2022-08-01T07:43:10;25.00;99.90
19224;DHT22;9746;47.180;9.776;2022-08-01T07:45:37;25.10;99.90
19224;DHT22;9746;47.180;9.776;2022-08-01T07:48:05;25.20;99.90
19224;DHT22;9746;47.180;9.776;2022-08-01T07:50:33;25.30;99.90
19224;DHT22;9746;47.180;9.776;2022-08-01T07:53:02;25.30;99.90
19224;DHT22;9746;47.180;9.776;2022-08-01T07:55:30;25.50;99.90
19224;DHT22;9746;47.180;9.776;2022-08-01T07:57:57;25.60;99.90
19224;DHT22;9746;47.180;9.776;2022-08-01T08:00:25;25.70;99.90
19224;DHT22;9746;47.180;9.776;2022-08-01T08:02:53;25.80;99.90
19224;DHT22;9746;47.180;9.776;2022-08-01T08:05:20;25.80;99.90
19224;DHT22;9746;47.180;9.776;2022-08-01T08:07:48;25.90;99.90
19224;DHT22;9746;47.180;9.776;2022-08-01T08:10:17;26.00;99.90
19224;DHT22;9746;47.180;9.776;2022-08-01T08:12:44;26.20;99.90
19224;DHT22;9746;47.180;9.776;2022-08-01T08:15:12;26.30;99.90
19224;DHT22;9746;47.180;9.776;2022-08-01T08:17:40;26.40;99.90
19224;DHT22;9746;47.180;9.776;2022-08-01T08:20:08;26.50;99.90
19224;DHT22;9746;47.180;9.776;2022-08-01T08:22:36;26.60;99.90
19224;DHT22;9746;47.180;9.776;2022-08-01T08:25:06;26.70;99.90
19224;DHT22;9746;47.180;9.776;2022-08-01T08:27:36;26.70;99.90
19224;DHT22;9746;47.180;9.776;2022-08-01T08:30:05;26.90;99.90
19224;DHT22;9746;47.180;9.776;2022-08-01T08:32:34;27.00;99.90
19224;DHT22;9746;47.180;9.776;2022-08-01T08:35:02;27.00;99.90
19224;DHT22;9746;47.180;9.776;2022-08-01T08:37:30;27.20;99.90
19224;DHT22;9746;47.180;9.776;2022-08-01T08:39:57;27.30;99.90
19224;DHT22;9746;47.180;9.776;2022-08-01T08:42:25;27.40;99.90
19224;DHT22;9746;47.180;9.776;2022-08-01T08:44:54;27.50;99.90
19224;DHT22;9746;47.180;9.776;2022-08-01T08:47:22;27.60;99.90
19224;DHT22;9746;47.180;9.776;2022-08-01T08:49:53;27.70;99.90
19224;DHT22;9746;47.180;9.776;2022-08-01T08:52:21;27.80;99.90
19224;DHT22;9746;47.180;9.776;2022-08-01T08:54:52;27.90;99.90
19224;DHT22;9746;47.180;9.776;2022-08-01T08:57:20;28.00;99.90
19224;DHT22;9746;47.180;9.776;2022-08-01T08:59:48;28.10;99.90
19224;DHT22;9746;47.180;9.776;2022-08-01T09:02:19;28.10;99.90
19224;DHT22;9746;47.180;9.776;2022-08-01T09:04:48;28.10;99.90
19224;DHT22;9746;47.180;9.776;2022-08-01T09:07:15;28.20;99.90
19224;DHT22;9746;47.180;9.776;2022-08-01T09:09:42;28.20;99.90
19224;DHT22;9746;47.180;9.776;2022-08-01T09:12:10;28.00;99.90
19224;DHT22;9746;47.180;9.776;2022-08-01T09:14:45;27.90;99.90
19224;DHT22;9746;47.180;9.776;2022-08-01T09:17:13;27.80;99.90
19224;DHT22;9746;47.180;9.776;2022-08-01T09:19:45;28.10;99.90
19224;DHT22;9746;47.180;9.776;2022-08-01T09:22:16;28.30;99.90
19224;DHT22;9746;47.180;9.776;2022-08-01T09:25:08;28.30;99.90
19224;DHT22;9746;47.180;9.776;2022-08-01T09:27:37;28.40;99.90
19224;DHT22;9746;47.180;9.776;2022-08-01T09:30:09;28.40;99.90
19224;DHT22;9746;47.180;9.776;2022-08-01T09:32:53;28.20;99.90
19224;DHT22;9746;47.180;9.776;2022-08-01T09:35:27;28.30;99.90
19224;DHT22;9746;47.180;9.776;2022-08-01T09:38:16;28.40;99.90
19224;DHT22;9746;47.180;9.776;2022-08-01T09:40:49;28.40;99.90
19224;DHT22;9746;47.180;9.776;2022-08-01T09:43:18;28.70;99.90
19224;DHT22;9746;47.180;9.776;2022-08-01T09:45:46;29.00;99.90
19224;DHT22;9746;47.180;9.776;2022-08-01T09:48:13;29.30;99.90
19224;DHT22;9746;47.180;9.776;2022-08-01T09:50:45;29.40;99.90
19224;DHT22;9746;47.180;9.776;2022-08-01T09:53:13;29.80;99.90
19224;DHT22;9746;47.180;9.776;2022-08-01T09:55:42;30.20;99.90
19224;DHT22;9746;47.180;9.776;2022-08-01T09:58:11;30.40;99.90
19224;DHT22;9746;47.180;9.776;2022-08-01T10:00:39;30.70;99.90
19224;DHT22;9746;47.180;9.776;2022-08-01T10:03:20;30.90;99.90
19224;DHT22;9746;47.180;9.776;2022-08-01T10:05:50;31.10;99.90
19224;DHT22;9746;47.180;9.776;2022-08-01T10:08:19;31.20;99.90
19224;DHT22;9746;47.180;9.776;2022-08-01T10:11:07;31.30;99.90
19224;DHT22;9746;47.180;9.776;2022-08-01T10:13:34;31.30;99.90
19224;DHT22;9746;47.180;9.776;2022-08-01T10:16:02;31.50;99.90
19224;DHT22;9746;47.180;9.776;2022-08-01T10:18:33;31.90;99.90
19224;DHT22;9746;47.180;9.776;2022-08-01T10:21:04;32.20;99.90
19224;DHT22;9746;47.180;9.776;2022-08-01T10:23:36;32.40;99.90
19224;DHT22;9746;47.180;9.776;2022-08-01T10:26:05;32.60;99.90
19224;DHT22;9746;47.180;9.776;2022-08-01T10:28:36;32.90;99.90
19224;DHT22;9746;47.180;9.776;2022-08-01T10:31:04;33.10;99.90
19224;DHT22;9746;47.180;9.776;2022-08-01T10:33:34;33.20;99.90
19224;DHT22;9746;47.180;9.776;2022-08-01T10:36:08;33.40;99.90
19224;DHT22;9746;47.180;9.776;2022-08-01T10:38:36;33.50;99.90
19224;DHT22;9746;47.180;9.776;2022-08-01T10:41:05;33.50;99.90
19224;DHT22;9746;47.180;9.776;2022-08-01T10:43:32;33.70;99.90
19224;DHT22;9746;47.180;9.776;2022-08-01T10:46:00;34.00;99.90
19224;DHT22;9746;47.180;9.776;2022-08-01T10:48:39;34.10;99.90
19224;DHT22;9746;47.180;9.776;2022-08-01T10:51:09;34.20;99.90
19224;DHT22;9746;47.180;9.776;2022-08-01T10:53:46;33.90;99.90
19224;DHT22;9746;47.180;9.776;2022-08-01T10:56:13;33.90;99.90
19224;DHT22;9746;47.180;9.776;2022-08-01T10:58:44;33.70;99.90
19224;DHT22;9746;47.180;9.776;2022-08-01T11:01:18;33.60;99.90
19224;DHT22;9746;47.180;9.776;2022-08-01T11:04:03;33.90;99.90
19224;DHT22;9746;47.180;9.776;2022-08-01T11:06:43;34.20;99.90
19224;DHT22;9746;47.180;9.776;2022-08-01T11:09:24;34.50;99.90
19224;DHT22;9746;47.180;9.776;2022-08-01T11:12:00;34.90;99.90
19224;DHT22;9746;47.180;9.776;2022-08-01T11:14:29;35.10;99.90
19224;DHT22;9746;47.180;9.776;2022-08-01T11:17:33;35.00;98.40
19224;DHT22;9746;47.180;9.776;2022-08-01T11:20:08;35.20;99.60
19224;DHT22;9746;47.180;9.776;2022-08-01T11:26:14;35.60;99.90
19224;DHT22;9746;47.180;9.776;2022-08-01T11:28:44;36.20;98.20
19224;DHT22;9746;47.180;9.776;2022-08-01T11:31:31;36.60;97.50
19224;DHT22;9746;47.180;9.776;2022-08-01T11:33:59;36.90;95.20
19224;DHT22;9746;47.180;9.776;2022-08-01T11:36:27;37.20;95.90
19224;DHT22;9746;47.180;9.776;2022-08-01T11:39:17;37.50;93.80
19224;DHT22;9746;47.180;9.776;2022-08-01T11:41:47;37.80;92.90
19224;DHT22;9746;47.180;9.776;2022-08-01T11:44:20;38.00;93.30
19224;DHT22;9746;47.180;9.776;2022-08-01T11:47:09;38.30;91.50
19224;DHT22;9746;47.180;9.776;2022-08-01T11:49:47;38.00;90.40
19224;DHT22;9746;47.180;9.776;2022-08-01T11:52:24;38.20;90.20
19224;DHT22;9746;47.180;9.776;2022-08-01T11:54:54;38.50;90.50
19224;DHT22;9746;47.180;9.776;2022-08-01T11:57:24;38.70;87.40
19224;DHT22;9746;47.180;9.776;2022-08-01T11:59:53;39.00;87.50
19224;DHT22;9746;47.180;9.776;2022-08-01T12:02:23;39.50;85.70
19224;DHT22;9746;47.180;9.776;2022-08-01T12:04:53;40.00;84.90
19224;DHT22;9746;47.180;9.776;2022-08-01T12:07:22;40.20;83.00
19224;DHT22;9746;47.180;9.776;2022-08-01T12:10:02;39.20;82.90
19224;DHT22;9746;47.180;9.776;2022-08-01T12:12:33;38.20;85.20
19224;DHT22;9746;47.180;9.776;2022-08-01T12:15:03;36.90;88.10
19224;DHT22;9746;47.180;9.776;2022-08-01T12:17:33;36.60;90.10
19224;DHT22;9746;47.180;9.776;2022-08-01T12:20:01;36.30;89.80
19224;DHT22;9746;47.180;9.776;2022-08-01T12:22:29;36.70;89.80
19224;DHT22;9746;47.180;9.776;2022-08-01T12:25:05;36.60;90.10
19224;DHT22;9746;47.180;9.776;2022-08-01T12:27:36;36.70;90.20
19224;DHT22;9746;47.180;9.776;2022-08-01T12:30:06;37.10;88.90
19224;DHT22;9746;47.180;9.776;2022-08-01T12:32:36;37.10;87.50
19224;DHT22;9746;47.180;9.776;2022-08-01T12:35:05;37.30;89.50
19224;DHT22;9746;47.180;9.776;2022-08-01T12:37:36;37.80;86.50
19224;DHT22;9746;47.180;9.776;2022-08-01T12:40:11;37.90;85.30
19224;DHT22;9746;47.180;9.776;2022-08-01T12:42:41;38.10;87.30
19224;DHT22;9746;47.180;9.776;2022-08-01T12:45:11;38.10;84.20
19224;DHT22;9746;47.180;9.776;2022-08-01T12:47:40;37.90;82.90
19224;DHT22;9746;47.180;9.776;2022-08-01T12:50:10;38.20;84.20
19224;DHT22;9746;47.180;9.776;2022-08-01T12:52:39;38.50;86.20
19224;DHT22;9746;47.180;9.776;2022-08-01T12:55:10;38.40;80.30
19224;DHT22;9746;47.180;9.776;2022-08-01T12:57:41;38.50;82.20
19224;DHT22;9746;47.180;9.776;2022-08-01T13:00:14;38.80;81.30
19224;DHT22;9746;47.180;9.776;2022-08-01T13:02:44;38.50;80.30
19224;DHT22;9746;47.180;9.776;2022-08-01T13:05:12;39.10;80.20
19224;DHT22;9746;47.180;9.776;2022-08-01T13:07:43;38.80;78.60
19224;DHT22;9746;47.180;9.776;2022-08-01T13:10:13;39.10;78.60
19224;DHT22;9746;47.180;9.776;2022-08-01T13:12:52;39.60;77.30
19224;DHT22;9746;47.180;9.776;2022-08-01T13:15:27;39.90;76.90
19224;DHT22;9746;47.180;9.776;2022-08-01T13:17:58;41.00;75.50
19224;DHT22;9746;47.180;9.776;2022-08-01T13:20:28;40.90;75.00
19224;DHT22;9746;47.180;9.776;2022-08-01T13:23:14;40.70;73.30
19224;DHT22;9746;47.180;9.776;2022-08-01T13:25:53;39.80;74.50
19224;DHT22;9746;47.180;9.776;2022-08-01T13:28:25;39.30;76.30
19224;DHT22;9746;47.180;9.776;2022-08-01T13:30:58;39.50;77.40
19224;DHT22;9746;47.180;9.776;2022-08-01T13:33:28;40.30;74.90
19224;DHT22;9746;47.180;9.776;2022-08-01T13:35:56;41.20;74.60
19224;DHT22;9746;47.180;9.776;2022-08-01T13:38:24;42.20;72.70
19224;DHT22;9746;47.180;9.776;2022-08-01T13:41:05;41.10;72.70
19224;DHT22;9746;47.180;9.776;2022-08-01T13:43:34;41.70;72.00
19224;DHT22;9746;47.180;9.776;2022-08-01T13:46:02;42.30;71.10
19224;DHT22;9746;47.180;9.776;2022-08-01T13:48:31;42.70;69.40
19224;DHT22;9746;47.180;9.776;2022-08-01T13:51:00;43.20;71.90
19224;DHT22;9746;47.180;9.776;2022-08-01T13:53:28;44.00;68.60
19224;DHT22;9746;47.180;9.776;2022-08-01T13:55:55;44.80;67.30
19224;DHT22;9746;47.180;9.776;2022-08-01T13:58:23;45.40;66.30
19224;DHT22;9746;47.180;9.776;2022-08-01T14:00:52;45.60;63.80
19224;DHT22;9746;47.180;9.776;2022-08-01T14:03:21;45.90;63.10
19224;DHT22;9746;47.180;9.776;2022-08-01T14:05:49;46.10;61.80
19224;DHT22;9746;47.180;9.776;2022-08-01T14:08:16;45.70;63.60
19224;DHT22;9746;47.180;9.776;2022-08-01T14:10:44;46.10;62.50
19224;DHT22;9746;47.180;9.776;2022-08-01T14:13:11;46.40;61.30
19224;DHT22;9746;47.180;9.776;2022-08-01T14:15:39;46.10;61.20
19224;DHT22;9746;47.180;9.776;2022-08-01T14:18:09;45.20;61.60
19224;DHT22;9746;47.180;9.776;2022-08-01T14:20:37;45.70;61.80
19224;DHT22;9746;47.180;9.776;2022-08-01T14:23:05;46.70;62.60
19224;DHT22;9746;47.180;9.776;2022-08-01T14:25:33;46.40;62.20
19224;DHT22;9746;47.180;9.776;2022-08-01T14:28:00;45.90;61.20
19224;DHT22;9746;47.180;9.776;2022-08-01T14:30:28;46.10;60.90
19224;DHT22;9746;47.180;9.776;2022-08-01T14:32:55;45.60;60.60
19224;DHT22;9746;47.180;9.776;2022-08-01T14:35:24;46.20;59.80
19224;DHT22;9746;47.180;9.776;2022-08-01T14:37:52;47.60;59.60
19224;DHT22;9746;47.180;9.776;2022-08-01T14:40:19;48.20;57.60
19224;DHT22;9746;47.180;9.776;2022-08-01T14:42:47;48.60;57.40
19224;DHT22;9746;47.180;9.776;2022-08-01T14:45:14;48.00;57.00
19224;DHT22;9746;47.180;9.776;2022-08-01T14:47:42;48.00;57.50
19224;DHT22;9746;47.180;9.776;2022-08-01T14:50:13;48.20;56.90
19224;DHT22;9746;47.180;9.776;2022-08-01T14:52:43;48.60;56.00
19224;DHT22;9746;47.180;9.776;2022-08-01T14:55:11;49.20;55.60
19224;DHT22;9746;47.180;9.776;2022-08-01T14:57:39;49.50;54.70
19224;DHT22;9746;47.180;9.776;2022-08-01T15:00:09;49.70;54.90
19224;DHT22;9746;47.180;9.776;2022-08-01T15:02:38;49.60;55.10
19224;DHT22;9746;47.180;9.776;2022-08-01T15:05:06;49.70;53.50
19224;DHT22;9746;47.180;9.776;2022-08-01T15:07:35;50.40;53.20
19224;DHT22;9746;47.180;9.776;2022-08-01T15:10:06;50.60;51.80
19224;DHT22;9746;47.180;9.776;2022-08-01T15:12:35;49.40;52.60
19224;DHT22;9746;47.180;9.776;2022-08-01T15:15:03;47.00;54.00
19224;DHT22;9746;47.180;9.776;2022-08-01T15:17:31;47.30;53.40
19224;DHT22;9746;47.180;9.776;2022-08-01T15:20:00;47.90;53.60
19224;DHT22;9746;47.180;9.776;2022-08-01T15:22:29;48.10;52.80
19224;DHT22;9746;47.180;9.776;2022-08-01T15:24:59;47.60;53.00
19224;DHT22;9746;47.180;9.776;2022-08-01T15:27:28;47.60;52.20
19224;DHT22;9746;47.180;9.776;2022-08-01T15:29:56;47.60;52.00
19224;DHT22;9746;47.180;9.776;2022-08-01T15:32:24;48.20;52.60
19224;DHT22;9746;47.180;9.776;2022-08-01T15:34:51;48.80;51.90
19224;DHT22;9746;47.180;9.776;2022-08-01T15:37:19;48.70;52.00
19224;DHT22;9746;47.180;9.776;2022-08-01T15:39:47;48.60;51.50
19224;DHT22;9746;47.180;9.776;2022-08-01T15:42:17;48.50;50.40
19224;DHT22;9746;47.180;9.776;2022-08-01T15:44:46;48.80;52.20
19224;DHT22;9746;47.180;9.776;2022-08-01T15:47:14;48.20;51.80
19224;DHT22;9746;47.180;9.776;2022-08-01T15:49:41;47.40;52.60
19224;DHT22;9746;47.180;9.776;2022-08-01T15:52:09;46.30;53.70
19224;DHT22;9746;47.180;9.776;2022-08-01T15:54:37;46.00;53.40
19224;DHT22;9746;47.180;9.776;2022-08-01T15:57:06;44.60;54.40
19224;DHT22;9746;47.180;9.776;2022-08-01T15:59:35;43.90;56.80
19224;DHT22;9746;47.180;9.776;2022-08-01T16:02:04;42.40;56.00
19224;DHT22;9746;47.180;9.776;2022-08-01T16:04:31;42.50;57.50
19224;DHT22;9746;47.180;9.776;2022-08-01T16:07:00;41.80;57.50
19224;DHT22;9746;47.180;9.776;2022-08-01T16:09:27;41.70;58.70
19224;DHT22;9746;47.180;9.776;2022-08-01T16:11:54;42.00;59.10
19224;DHT22;9746;47.180;9.776;2022-08-01T16:14:22;42.60;58.30
19224;DHT22;9746;47.180;9.776;2022-08-01T16:16:49;42.70;58.20
19224;DHT22;9746;47.180;9.776;2022-08-01T16:19:18;42.40;57.90
19224;DHT22;9746;47.180;9.776;2022-08-01T16:21:45;41.70;59.00
19224;DHT22;9746;47.180;9.776;2022-08-01T16:24:13;41.10;59.20
19224;DHT22;9746;47.180;9.776;2022-08-01T16:26:40;40.80;59.80
19224;DHT22;9746;47.180;9.776;2022-08-01T16:29:08;39.80;61.80
19224;DHT22;9746;47.180;9.776;2022-08-01T16:31:35;39.50;62.70
19224;DHT22;9746;47.180;9.776;2022-08-01T16:34:02;39.00;62.80
19224;DHT22;9746;47.180;9.776;2022-08-01T16:36:31;38.10;63.40
19224;DHT22;9746;47.180;9.776;2022-08-01T16:38:59;37.20;65.20
19224;DHT22;9746;47.180;9.776;2022-08-01T16:41:26;36.20;67.40
19224;DHT22;9746;47.180;9.776;2022-08-01T16:43:53;35.40;68.40
19224;DHT22;9746;47.180;9.776;2022-08-01T16:46:22;34.80;69.30
19224;DHT22;9746;47.180;9.776;2022-08-01T16:48:52;34.60;71.00
19224;DHT22;9746;47.180;9.776;2022-08-01T16:51:20;34.10;70.50
19224;DHT22;9746;47.180;9.776;2022-08-01T16:53:49;33.60;71.50
19224;DHT22;9746;47.180;9.776;2022-08-01T16:56:16;33.50;72.30
19224;DHT22;9746;47.180;9.776;2022-08-01T16:58:43;33.10;72.20
19224;DHT22;9746;47.180;9.776;2022-08-01T17:01:11;33.10;72.60
19224;DHT22;9746;47.180;9.776;2022-08-01T17:03:38;33.00;74.50
19224;DHT22;9746;47.180;9.776;2022-08-01T17:06:06;32.80;73.40
19224;DHT22;9746;47.180;9.776;2022-08-01T17:08:33;32.70;72.30
19224;DHT22;9746;47.180;9.776;2022-08-01T17:11:02;32.60;73.10
19224;DHT22;9746;47.180;9.776;2022-08-01T17:13:30;32.70;73.50
19224;DHT22;9746;47.180;9.776;2022-08-01T17:15:57;32.60;75.10
19224;DHT22;9746;47.180;9.776;2022-08-01T17:18:25;32.20;74.00
19224;DHT22;9746;47.180;9.776;2022-08-01T17:20:56;31.90;74.70
19224;DHT22;9746;47.180;9.776;2022-08-01T17:23:24;31.70;75.90
19224;DHT22;9746;47.180;9.776;2022-08-01T17:25:51;31.70;76.20
19224;DHT22;9746;47.180;9.776;2022-08-01T17:28:20;31.60;78.80
19224;DHT22;9746;47.180;9.776;2022-08-01T17:30:48;31.40;78.60
19224;DHT22;9746;47.180;9.776;2022-08-01T17:33:16;31.20;79.30
19224;DHT22;9746;47.180;9.776;2022-08-01T17:35:43;30.90;79.40
19224;DHT22;9746;47.180;9.776;2022-08-01T17:38:11;30.80;79.90
19224;DHT22;9746;47.180;9.776;2022-08-01T17:40:38;30.60;81.20
19224;DHT22;9746;47.180;9.776;2022-08-01T17:43:06;30.60;81.60
19224;DHT22;9746;47.180;9.776;2022-08-01T17:45:35;30.50;82.40
19224;DHT22;9746;47.180;9.776;2022-08-01T17:48:02;30.50;83.60
19224;DHT22;9746;47.180;9.776;2022-08-01T17:50:30;30.60;84.00
19224;DHT22;9746;47.180;9.776;2022-08-01T17:52:57;30.30;82.90
19224;DHT22;9746;47.180;9.776;2022-08-01T17:55:25;30.10;84.00
19224;DHT22;9746;47.180;9.776;2022-08-01T17:57:53;30.10;85.60
19224;DHT22;9746;47.180;9.776;2022-08-01T18:00:21;30.00;83.70
19224;DHT22;9746;47.180;9.776;2022-08-01T18:02:49;29.90;87.80
19224;DHT22;9746;47.180;9.776;2022-08-01T18:05:17;29.80;90.80
19224;DHT22;9746;47.180;9.776;2022-08-01T18:07:45;29.60;91.90
19224;DHT22;9746;47.180;9.776;2022-08-01T18:10:12;29.50;91.90
19224;DHT22;9746;47.180;9.776;2022-08-01T18:12:39;29.20;92.70
19224;DHT22;9746;47.180;9.776;2022-08-01T18:15:08;29.00;93.00
19224;DHT22;9746;47.180;9.776;2022-08-01T18:17:36;28.90;93.30
19224;DHT22;9746;47.180;9.776;2022-08-01T18:20:07;28.80;94.30
19224;DHT22;9746;47.180;9.776;2022-08-01T18:22:34;28.60;94.20
19224;DHT22;9746;47.180;9.776;2022-08-01T18:25:03;28.50;94.90
19224;DHT22;9746;47.180;9.776;2022-08-01T18:27:31;28.30;96.20
19224;DHT22;9746;47.180;9.776;2022-08-01T18:29:59;28.00;96.90
19224;DHT22;9746;47.180;9.776;2022-08-01T18:32:28;27.70;97.80
19224;DHT22;9746;47.180;9.776;2022-08-01T18:34:56;27.60;98.00
19224;DHT22;9746;47.180;9.776;2022-08-01T18:37:25;27.20;96.80
19224;DHT22;9746;47.180;9.776;2022-08-01T18:39:52;27.00;98.90
19224;DHT22;9746;47.180;9.776;2022-08-01T18:42:20;26.90;98.90
19224;DHT22;9746;47.180;9.776;2022-08-01T18:44:47;26.80;98.60
19224;DHT22;9746;47.180;9.776;2022-08-01T18:47:15;26.60;98.90
19224;DHT22;9746;47.180;9.776;2022-08-01T18:49:42;26.40;99.60
19224;DHT22;9746;47.180;9.776;2022-08-01T18:52:09;26.10;99.90
19224;DHT22;9746;47.180;9.776;2022-08-01T18:54:39;25.90;99.90
19224;DHT22;9746;47.180;9.776;2022-08-01T18:57:07;25.70;99.90
19224;DHT22;9746;47.180;9.776;2022-08-01T18:59:34;25.50;99.90
19224;DHT22;9746;47.180;9.776;2022-08-01T19:02:02;25.40;99.90
19224;DHT22;9746;47.180;9.776;2022-08-01T19:04:29;25.30;99.90
19224;DHT22;9746;47.180;9.776;2022-08-01T19:06:57;25.30;99.90
19224;DHT22;9746;47.180;9.776;2022-08-01T19:09:25;25.30;99.90
19224;DHT22;9746;47.180;9.776;2022-08-01T19:11:54;25.20;99.90
19224;DHT22;9746;47.180;9.776;2022-08-01T19:14:21;25.10;99.90
19224;DHT22;9746;47.180;9.776;2022-08-01T19:16:48;25.00;99.90
19224;DHT22;9746;47.180;9.776;2022-08-01T19:19:16;24.90;99.90
19224;DHT22;9746;47.180;9.776;2022-08-01T19:21:44;24.90;99.90
19224;DHT22;9746;47.180;9.776;2022-08-01T19:24:11;24.80;99.90
19224;DHT22;9746;47.180;9.776;2022-08-01T19:26:49;24.70;99.90
19224;DHT22;9746;47.180;9.776;2022-08-01T19:29:20;24.60;99.90
19224;DHT22;9746;47.180;9.776;2022-08-01T19:31:49;24.70;99.40
19224;DHT22;9746;47.180;9.776;2022-08-01T19:34:17;24.80;99.40
19224;DHT22;9746;47.180;9.776;2022-08-01T19:36:46;24.80;99.90
19224;DHT22;9746;47.180;9.776;2022-08-01T19:39:14;24.70;99.90
19224;DHT22;9746;47.180;9.776;2022-08-01T19:41:44;24.70;99.90
19224;DHT22;9746;47.180;9.776;2022-08-01T19:44:13;24.70;99.90
